createdAt,value
2022-08-30T00:02:02.318Z,15.40
2022-08-30T00:04:29.042Z,15.30
2022-08-30T00:06:55.616Z,15.30
2022-08-30T00:09:22.191Z,15.50
2022-08-30T00:11:51.197Z,15.50
2022-08-30T00:14:17.928Z,15.30
2022-08-30T00:16:44.610Z,15.20
2022-08-30T00:19:11.212Z,15.20
2022-08-30T00:21:39.381Z,15.20
2022-08-30T00:24:06.133Z,15.20
2022-08-30T00:26:32.676Z,15.20
2022-08-30T00:28:59.315Z,15.30
2022-08-30T00:31:25.926Z,15.10
2022-08-30T00:33:52.536Z,15.10
2022-08-30T00:36:19.107Z,15.10
2022-08-30T00:38:45.695Z,15.10
2022-08-30T00:41:12.657Z,15.00
2022-08-30T00:43:39.289Z,15.00
2022-08-30T00:46:08.534Z,15.00
2022-08-30T00:48:38.886Z,15.00
2022-08-30T00:51:10.549Z,15.00
2022-08-30T00:53:41.986Z,14.90
2022-08-30T00:56:10.044Z,14.80
2022-08-30T00:58:42.338Z,14.80
2022-08-30T01:01:10.127Z,14.80
2022-08-30T01:03:38.110Z,14.80
2022-08-30T01:06:05.939Z,14.80
2022-08-30T01:08:32.557Z,14.80
2022-08-30T01:11:00.118Z,14.90
2022-08-30T01:13:27.798Z,14.80
2022-08-30T01:15:55.089Z,14.60
2022-08-30T01:18:23.179Z,14.70
2022-08-30T01:21:10.898Z,14.60
2022-08-30T01:23:40.991Z,14.60
2022-08-30T01:26:10.275Z,14.70
2022-08-30T01:28:39.559Z,14.70
2022-08-30T01:31:06.411Z,15.00
2022-08-30T01:33:33.040Z,14.60
2022-08-30T01:36:06.466Z,14.50
2022-08-30T01:38:53.785Z,14.50
2022-08-30T01:41:32.753Z,14.50
2022-08-30T01:44:02.894Z,14.40
2022-08-30T01:46:36.959Z,14.40
2022-08-30T01:49:10.440Z,14.40
2022-08-30T01:51:38.019Z,14.40
2022-08-30T01:54:05.472Z,14.50
2022-08-30T01:56:32.070Z,14.30
2022-08-30T01:59:02.539Z,14.30
2022-08-30T02:01:32.599Z,14.40
2022-08-30T02:04:00.029Z,14.30
2022-08-30T02:06:27.324Z,14.30
2022-08-30T02:08:54.430Z,14.20
2022-08-30T02:11:21.054Z,16.50
2022-08-30T02:13:47.759Z,14.20
2022-08-30T02:16:17.952Z,14.20
2022-08-30T02:18:45.358Z,14.10
2022-08-30T02:21:12.955Z,14.10
2022-08-30T02:23:39.603Z,14.10
2022-08-30T02:26:06.326Z,14.00
2022-08-30T02:28:33.188Z,14.10
2022-08-30T02:31:00.518Z,14.00
2022-08-30T02:33:27.329Z,14.00
2022-08-30T02:35:54.058Z,14.00
2022-08-30T02:38:20.613Z,14.00
2022-08-30T02:40:47.564Z,14.00
2022-08-30T02:43:14.309Z,14.00
2022-08-30T02:45:41.199Z,13.90
2022-08-30T02:48:07.830Z,14.00
2022-08-30T02:50:34.714Z,13.90
2022-08-30T02:53:01.268Z,13.80
2022-08-30T02:55:27.860Z,13.80
2022-08-30T02:57:54.430Z,13.80
2022-08-30T03:00:21.762Z,13.70
2022-08-30T03:02:49.224Z,13.70
2022-08-30T03:05:16.871Z,13.70
2022-08-30T03:07:43.823Z,13.80
2022-08-30T03:10:10.883Z,13.70
2022-08-30T03:12:38.330Z,13.70
2022-08-30T03:15:06.461Z,13.60
2022-08-30T03:17:33.078Z,13.60
2022-08-30T03:20:01.792Z,13.70
2022-08-30T03:22:29.489Z,13.60
2022-08-30T03:25:01.277Z,13.60
2022-08-30T03:27:29.413Z,13.60
2022-08-30T03:29:56.400Z,13.50
2022-08-30T03:32:23.713Z,13.50
2022-08-30T03:34:50.410Z,13.40
2022-08-30T03:37:17.386Z,13.40
2022-08-30T03:39:45.502Z,13.30
2022-08-30T03:42:13.112Z,13.30
2022-08-30T03:44:39.841Z,13.30
2022-08-30T03:47:07.210Z,13.40
2022-08-30T03:49:34.140Z,13.20
2022-08-30T03:52:00.686Z,13.50
2022-08-30T03:54:27.257Z,13.20
2022-08-30T03:56:53.870Z,13.20
2022-08-30T03:59:20.483Z,13.20
2022-08-30T04:01:47.850Z,13.20
2022-08-30T04:04:20.002Z,13.20
2022-08-30T04:06:47.220Z,13.20
2022-08-30T04:09:13.797Z,13.30
2022-08-30T04:11:40.519Z,13.20
2022-08-30T04:14:07.121Z,13.20
2022-08-30T04:16:33.795Z,13.20
2022-08-30T04:19:00.496Z,13.20
2022-08-30T04:21:27.245Z,13.20
2022-08-30T04:23:53.912Z,13.20
2022-08-30T04:26:20.745Z,13.20
2022-08-30T04:28:47.403Z,13.30
2022-08-30T04:31:16.469Z,13.20
2022-08-30T04:33:44.474Z,13.10
2022-08-30T04:36:11.652Z,13.10
2022-08-30T04:38:39.196Z,13.10
2022-08-30T04:41:12.026Z,13.00
2022-08-30T04:43:40.013Z,13.00
2022-08-30T04:46:08.514Z,13.10
2022-08-30T04:48:37.543Z,13.00
2022-08-30T04:51:09.281Z,13.00
2022-08-30T04:53:36.370Z,13.00
2022-08-30T04:56:08.286Z,13.00
2022-08-30T04:58:34.981Z,13.00
2022-08-30T05:01:01.702Z,13.10
2022-08-30T05:03:29.341Z,13.10
2022-08-30T05:05:55.946Z,13.20
2022-08-30T05:08:24.758Z,13.10
2022-08-30T05:10:52.609Z,13.20
2022-08-30T05:13:20.936Z,13.20
2022-08-30T05:15:53.328Z,13.30
2022-08-30T05:18:21.301Z,13.40
2022-08-30T05:20:47.945Z,13.50
2022-08-30T05:23:14.616Z,13.60
2022-08-30T05:25:42.432Z,13.90
2022-08-30T05:28:09.630Z,13.80
2022-08-30T05:30:37.060Z,13.90
2022-08-30T05:33:04.196Z,14.00
2022-08-30T05:35:30.778Z,15.50
2022-08-30T05:37:57.638Z,14.40
2022-08-30T05:40:25.020Z,14.30
2022-08-30T05:42:51.723Z,14.50
2022-08-30T05:45:18.432Z,14.60
2022-08-30T05:47:45.073Z,14.70
2022-08-30T05:50:11.698Z,14.80
2022-08-30T05:52:39.417Z,13.40
2022-08-30T05:55:07.683Z,15.10
2022-08-30T05:57:36.210Z,15.20
2022-08-30T06:00:12.657Z,15.40
2022-08-30T06:02:40.547Z,15.50
2022-08-30T06:05:07.990Z,15.70
2022-08-30T06:07:34.871Z,15.90
2022-08-30T06:10:02.104Z,16.20
2022-08-30T06:12:28.764Z,16.30
2022-08-30T06:14:55.602Z,16.60
2022-08-30T06:17:22.179Z,16.90
2022-08-30T06:19:48.861Z,17.20
2022-08-30T06:22:15.452Z,17.30
2022-08-30T06:24:56.883Z,17.70
2022-08-30T06:27:24.291Z,17.80
2022-08-30T06:29:52.473Z,18.10
2022-08-30T06:32:19.208Z,18.30
2022-08-30T06:34:45.867Z,18.60
2022-08-30T06:37:12.448Z,18.80
2022-08-30T06:39:57.409Z,18.90
2022-08-30T06:42:24.453Z,19.00
2022-08-30T06:44:51.445Z,19.10
2022-08-30T06:47:18.140Z,19.20
2022-08-30T06:49:44.728Z,19.20
2022-08-30T06:52:11.750Z,19.20
2022-08-30T06:54:38.860Z,19.10
2022-08-30T06:57:05.466Z,19.10
2022-08-30T06:59:32.402Z,18.90
2022-08-30T07:01:59.154Z,18.90
2022-08-30T07:04:26.398Z,18.80
2022-08-30T07:06:53.168Z,18.80
2022-08-30T07:11:50.610Z,18.80
2022-08-30T07:14:17.752Z,18.70
2022-08-30T07:16:45.353Z,18.70
2022-08-30T07:19:20.343Z,18.60
2022-08-30T07:21:48.863Z,20.10
2022-08-30T07:24:16.265Z,18.60
2022-08-30T07:26:48.868Z,18.50
2022-08-30T07:29:16.868Z,18.40
2022-08-30T07:31:43.659Z,18.40
2022-08-30T07:34:10.288Z,18.40
2022-08-30T07:36:38.385Z,18.50
2022-08-30T07:39:05.872Z,18.50
2022-08-30T07:41:35.584Z,18.50
2022-08-30T07:44:02.522Z,18.40
2022-08-30T07:46:29.297Z,18.40
2022-08-30T07:48:56.082Z,18.40
2022-08-30T07:51:25.234Z,18.40
2022-08-30T07:53:52.778Z,18.50
2022-08-30T07:56:19.417Z,18.50
2022-08-30T07:58:46.001Z,18.60
2022-08-30T08:01:13.676Z,18.60
2022-08-30T08:03:42.782Z,18.60
2022-08-30T08:06:12.136Z,18.70
2022-08-30T08:08:40.037Z,18.70
2022-08-30T08:11:23.010Z,18.80
2022-08-30T08:13:54.359Z,18.90
2022-08-30T08:16:28.967Z,18.90
2022-08-30T08:18:56.302Z,18.90
2022-08-30T08:21:23.934Z,18.80
2022-08-30T08:23:51.324Z,18.80
2022-08-30T08:26:18.788Z,18.80
2022-08-30T08:28:46.951Z,18.80
2022-08-30T08:31:18.960Z,18.80
2022-08-30T08:33:46.995Z,18.80
2022-08-30T08:36:13.741Z,18.80
2022-08-30T08:38:40.653Z,18.80
2022-08-30T08:41:30.013Z,19.00
2022-08-30T08:43:56.976Z,19.00
2022-08-30T08:46:51.605Z,19.10
2022-08-30T08:49:19.092Z,19.20
2022-08-30T08:52:04.431Z,19.20
2022-08-30T08:54:38.996Z,19.20
2022-08-30T08:57:05.605Z,19.20
2022-08-30T08:59:32.190Z,19.20
2022-08-30T09:02:02.841Z,19.20
2022-08-30T09:04:37.679Z,19.30
2022-08-30T09:07:14.208Z,19.30
2022-08-30T09:09:41.430Z,19.30
2022-08-30T09:12:10.679Z,19.30
2022-08-30T09:15:01.665Z,19.30
2022-08-30T09:17:28.640Z,19.30
2022-08-30T09:19:55.694Z,19.40
2022-08-30T09:22:42.481Z,19.40
2022-08-30T09:25:13.223Z,19.40
2022-08-30T09:27:47.548Z,19.50
2022-08-30T09:30:29.348Z,19.60
2022-08-30T09:32:58.834Z,19.60
2022-08-30T09:35:44.300Z,19.70
2022-08-30T09:38:22.459Z,19.70
2022-08-30T09:40:51.835Z,19.80
2022-08-30T09:43:18.366Z,19.90
2022-08-30T09:46:04.549Z,19.90
2022-08-30T09:48:35.276Z,20.80
2022-08-30T09:51:11.673Z,20.10
2022-08-30T09:56:56.718Z,20.20
2022-08-30T09:59:48.597Z,20.20
2022-08-30T10:02:33.824Z,20.30
2022-08-30T10:05:09.543Z,20.40
2022-08-30T10:07:58.002Z,20.50
2022-08-30T10:10:30.546Z,20.50
2022-08-30T10:13:22.557Z,20.50
2022-08-30T10:16:00.690Z,20.60
2022-08-30T10:18:40.469Z,20.70
2022-08-30T10:21:34.895Z,20.80
2022-08-30T10:24:12.083Z,20.90
2022-08-30T10:26:57.572Z,20.90
2022-08-30T10:29:31.509Z,21.00
2022-08-30T10:32:17.492Z,21.10
2022-08-30T10:35:01.634Z,21.20
2022-08-30T10:37:31.431Z,21.30
2022-08-30T10:40:22.557Z,23.90
2022-08-30T10:42:52.577Z,21.40
2022-08-30T10:45:21.996Z,21.40
2022-08-30T10:47:59.814Z,21.50
2022-08-30T10:50:34.883Z,21.50
2022-08-30T10:53:19.638Z,21.60
2022-08-30T10:55:55.005Z,21.60
2022-08-30T10:58:21.978Z,21.70
2022-08-30T11:01:36.053Z,21.70
2022-08-30T11:04:21.558Z,21.80
2022-08-30T11:07:21.457Z,21.80
2022-08-30T11:10:27.836Z,21.80
2022-08-30T11:13:21.071Z,21.90
2022-08-30T11:15:56.400Z,22.00
2022-08-30T11:18:25.681Z,22.10
2022-08-30T11:20:56.265Z,22.10
2022-08-30T11:23:36.366Z,22.20
2022-08-30T11:26:12.179Z,22.30
2022-08-30T11:28:47.299Z,22.30
2022-08-30T11:31:29.370Z,22.30
2022-08-30T11:33:59.364Z,22.30
2022-08-30T11:40:03.889Z,22.20
2022-08-30T11:42:32.660Z,22.20
2022-08-30T11:45:25.384Z,22.30
2022-08-30T11:47:59.558Z,20.00
2022-08-30T11:51:08.576Z,22.30
2022-08-30T11:53:50.304Z,22.30
2022-08-30T11:56:34.944Z,22.40
2022-08-30T11:59:07.785Z,22.50
2022-08-30T12:01:41.510Z,22.50
2022-08-30T12:04:37.327Z,22.60
2022-08-30T12:07:08.705Z,22.60
2022-08-30T12:09:35.320Z,22.70
2022-08-30T12:12:08.329Z,22.70
2022-08-30T12:14:54.672Z,22.70
2022-08-30T12:17:45.506Z,22.80
2022-08-30T12:20:37.814Z,22.90
2022-08-30T12:23:24.034Z,22.90
2022-08-30T12:26:08.477Z,22.90
2022-08-30T12:28:38.105Z,23.00
2022-08-30T12:31:14.902Z,23.00
2022-08-30T12:33:45.773Z,23.10
2022-08-30T12:36:31.358Z,23.10
2022-08-30T12:39:24.369Z,23.10
2022-08-30T12:41:51.612Z,23.10
2022-08-30T12:44:26.206Z,23.10
2022-08-30T12:47:01.758Z,23.00
2022-08-30T12:49:34.098Z,23.00
2022-08-30T12:52:26.169Z,23.00
2022-08-30T12:54:55.037Z,23.00
2022-08-30T12:57:44.934Z,23.00
2022-08-30T13:00:25.700Z,22.90
2022-08-30T13:02:54.677Z,22.90
2022-08-30T13:05:32.430Z,22.90
2022-08-30T13:08:27.781Z,22.90
2022-08-30T13:10:59.300Z,22.90
2022-08-30T13:13:33.021Z,22.90
2022-08-30T13:16:24.655Z,22.90
2022-08-30T13:19:26.592Z,22.90
2022-08-30T13:21:56.146Z,22.90
2022-08-30T13:24:25.527Z,23.00
2022-08-30T13:26:54.335Z,23.00
2022-08-30T13:29:26.010Z,23.10
2022-08-30T13:31:53.165Z,23.10
2022-08-30T13:34:22.406Z,23.20
2022-08-30T13:36:53.949Z,23.20
2022-08-30T13:39:21.895Z,23.20
2022-08-30T13:41:49.524Z,23.40
2022-08-30T13:44:16.505Z,23.40
2022-08-30T13:46:53.819Z,23.40
2022-08-30T13:49:50.702Z,23.40
2022-08-30T13:52:22.918Z,23.40
2022-08-30T13:54:55.246Z,23.40
2022-08-30T14:00:19.914Z,23.40
2022-08-30T14:02:53.989Z,23.50
2022-08-30T14:05:48.445Z,23.50
2022-08-30T14:11:09.150Z,23.50
2022-08-30T14:13:35.767Z,23.50
2022-08-30T14:18:54.806Z,23.50
2022-08-30T14:21:24.784Z,23.50
2022-08-30T14:23:52.868Z,23.50
2022-08-30T14:26:40.328Z,23.60
2022-08-30T14:29:10.718Z,23.60
2022-08-30T14:31:40.974Z,26.50
2022-08-30T14:34:12.112Z,23.60
2022-08-30T14:36:42.329Z,23.60
2022-08-30T14:39:12.048Z,23.60
2022-08-30T14:41:47.548Z,23.70
2022-08-30T14:44:16.370Z,23.70
2022-08-30T14:46:43.827Z,23.70
2022-08-30T14:49:12.079Z,23.70
2022-08-30T14:51:39.350Z,23.70
2022-08-30T14:54:06.600Z,23.70
2022-08-30T14:56:34.630Z,23.70
2022-08-30T14:59:02.857Z,23.70
2022-08-30T15:01:31.078Z,23.80
2022-08-30T15:03:58.762Z,23.80
2022-08-30T15:06:26.482Z,23.90
2022-08-30T15:08:54.000Z,23.80
2022-08-30T15:11:22.274Z,23.70
2022-08-30T15:13:49.130Z,22.50
2022-08-30T15:16:24.435Z,23.70
2022-08-30T15:18:51.371Z,23.70
2022-08-30T15:21:30.589Z,23.70
2022-08-30T15:23:58.517Z,23.60
2022-08-30T15:26:25.745Z,23.60
2022-08-30T15:28:55.066Z,23.60
2022-08-30T15:31:28.730Z,23.50
2022-08-30T15:33:55.718Z,23.50
2022-08-30T15:36:23.758Z,23.50
2022-08-30T15:38:55.256Z,23.40
2022-08-30T15:41:22.285Z,23.40
2022-08-30T15:43:49.481Z,23.40
2022-08-30T15:46:43.621Z,23.40
2022-08-30T15:49:16.680Z,23.30
2022-08-30T15:51:46.012Z,23.30
2022-08-30T15:54:16.433Z,23.30
2022-08-30T15:56:43.889Z,23.30
2022-08-30T15:59:15.056Z,23.30
2022-08-30T16:01:42.826Z,23.30
2022-08-30T16:04:10.707Z,23.20
2022-08-30T16:06:38.397Z,23.20
2022-08-30T16:09:07.308Z,23.30
2022-08-30T16:11:34.779Z,23.20
2022-08-30T16:14:01.888Z,23.20
2022-08-30T16:16:28.866Z,23.20
2022-08-30T16:18:55.559Z,23.20
2022-08-30T16:21:25.213Z,23.20
2022-08-30T16:23:54.996Z,23.30
2022-08-30T16:26:22.011Z,20.60
2022-08-30T16:28:49.234Z,23.30
2022-08-30T16:31:17.011Z,23.20
2022-08-30T16:33:45.015Z,23.20
2022-08-30T16:36:12.766Z,23.20
2022-08-30T16:38:40.517Z,23.10
2022-08-30T16:41:10.436Z,23.10
2022-08-30T16:43:38.907Z,21.30
2022-08-30T16:46:09.658Z,23.10
2022-08-30T16:48:37.894Z,23.10
2022-08-30T16:51:10.635Z,24.50
2022-08-30T16:53:38.596Z,23.00
2022-08-30T16:56:21.251Z,22.90
2022-08-30T16:58:48.605Z,22.90
2022-08-30T17:01:19.424Z,22.90
2022-08-30T17:03:49.258Z,22.90
2022-08-30T17:06:17.888Z,22.80
2022-08-30T17:08:47.292Z,22.80
2022-08-30T17:11:14.376Z,22.80
2022-08-30T17:13:41.491Z,22.70
2022-08-30T17:16:08.494Z,22.70
2022-08-30T17:18:35.921Z,22.60
2022-08-30T17:21:04.393Z,22.60
2022-08-30T17:23:34.414Z,22.50
2022-08-30T17:26:01.316Z,22.50
2022-08-30T17:28:29.297Z,22.40
2022-08-30T17:30:56.011Z,21.00
2022-08-30T17:33:22.834Z,22.40
2022-08-30T17:35:50.052Z,22.30
2022-08-30T17:38:17.081Z,22.20
2022-08-30T17:40:43.884Z,22.20
2022-08-30T17:43:10.542Z,22.10
2022-08-30T17:45:37.490Z,22.00
2022-08-30T17:48:06.967Z,22.00
2022-08-30T17:50:34.890Z,22.00
2022-08-30T17:53:01.467Z,21.90
2022-08-30T17:55:28.543Z,21.80
2022-08-30T17:57:57.578Z,21.80
2022-08-30T18:00:27.214Z,21.70
2022-08-30T18:02:53.860Z,21.70
2022-08-30T18:05:24.659Z,21.60
2022-08-30T18:07:52.216Z,21.50
2022-08-30T18:10:18.915Z,21.50
2022-08-30T18:12:46.032Z,21.50
2022-08-30T18:15:14.776Z,21.40
2022-08-30T18:17:44.253Z,21.30
2022-08-30T18:20:11.585Z,21.30
2022-08-30T18:22:38.216Z,21.20
2022-08-30T18:25:06.034Z,21.20
2022-08-30T18:27:32.630Z,21.10
2022-08-30T18:30:07.764Z,21.00
2022-08-30T18:32:38.444Z,20.90
2022-08-30T18:35:05.616Z,20.90
2022-08-30T18:37:32.451Z,19.60
2022-08-30T18:39:59.482Z,20.70
2022-08-30T18:42:27.727Z,20.70
2022-08-30T18:44:54.312Z,20.60
2022-08-30T18:47:23.295Z,20.60
2022-08-30T18:49:50.516Z,20.50
2022-08-30T18:52:17.266Z,20.40
2022-08-30T18:54:52.712Z,20.30
2022-08-30T18:57:20.968Z,20.30
2022-08-30T18:59:48.850Z,20.20
2022-08-30T19:02:16.742Z,20.10
2022-08-30T19:04:45.408Z,20.10
2022-08-30T19:07:14.775Z,20.00
2022-08-30T19:09:43.059Z,19.90
2022-08-30T19:12:11.491Z,19.90
2022-08-30T19:14:38.988Z,19.80
2022-08-30T19:19:54.915Z,19.60
2022-08-30T19:22:24.041Z,19.50
2022-08-30T19:24:55.269Z,19.50
2022-08-30T19:27:37.183Z,19.40
2022-08-30T19:30:08.287Z,19.40
2022-08-30T19:32:35.344Z,19.30
2022-08-30T19:35:02.191Z,19.20
2022-08-30T19:37:29.246Z,19.20
2022-08-30T19:39:56.838Z,19.10
2022-08-30T19:42:27.405Z,19.10
2022-08-30T19:44:54.163Z,19.00
2022-08-30T19:47:21.303Z,18.90
2022-08-30T19:49:48.001Z,18.90
2022-08-30T19:52:14.897Z,18.80
2022-08-30T19:54:41.479Z,20.00
2022-08-30T19:57:09.833Z,18.70
2022-08-30T19:59:37.418Z,18.70
2022-08-30T20:02:04.906Z,18.50
2022-08-30T20:04:33.757Z,18.50
2022-08-30T20:07:01.046Z,18.40
2022-08-30T20:09:27.851Z,18.40
2022-08-30T20:11:55.127Z,18.30
2022-08-30T20:14:25.109Z,18.20
2022-08-30T20:16:53.197Z,18.20
2022-08-30T20:19:20.423Z,18.10
2022-08-30T20:21:54.268Z,18.10
2022-08-30T20:24:28.082Z,18.20
2022-08-30T20:24:32.337Z,19.70
2022-08-30T20:26:55.805Z,17.90
2022-08-30T20:29:22.424Z,17.90
2022-08-30T20:31:49.297Z,18.00
2022-08-30T20:34:16.041Z,17.80
2022-08-30T20:36:42.637Z,17.80
2022-08-30T20:39:10.031Z,17.70
2022-08-30T20:41:37.677Z,17.90
2022-08-30T20:44:06.869Z,17.80
2022-08-30T20:46:42.090Z,17.60
2022-08-30T20:49:08.684Z,17.60
2022-08-30T20:51:35.822Z,17.60
2022-08-30T20:54:06.340Z,17.60
2022-08-30T20:56:34.304Z,17.60
2022-08-30T20:59:02.543Z,17.70
2022-08-30T21:01:31.651Z,17.70
2022-08-30T21:03:58.486Z,17.80
2022-08-30T21:06:25.312Z,17.80
2022-08-30T21:08:52.551Z,17.90
2022-08-30T21:11:19.795Z,17.90
2022-08-30T21:13:48.481Z,18.00
2022-08-30T21:16:17.597Z,18.00
2022-08-30T21:18:49.401Z,18.10
2022-08-30T21:21:21.342Z,18.20
2022-08-30T21:23:58.284Z,18.20
2022-08-30T21:26:25.184Z,16.80
2022-08-30T21:28:53.930Z,18.50
2022-08-30T21:31:23.780Z,18.30
2022-08-30T21:33:52.382Z,18.30
2022-08-30T21:36:38.506Z,18.40
2022-08-30T21:39:06.842Z,19.60
2022-08-30T21:41:35.827Z,18.30
2022-08-30T21:44:05.751Z,18.40
2022-08-30T21:46:34.170Z,18.40
2022-08-30T21:49:03.381Z,18.30
2022-08-30T21:51:34.057Z,18.30
2022-08-30T21:54:02.308Z,18.30
2022-08-30T21:56:29.219Z,18.30
2022-08-30T21:58:56.189Z,18.40
2022-08-30T22:01:25.299Z,18.40
2022-08-30T22:03:54.993Z,18.30
2022-08-30T22:06:22.611Z,18.30
2022-08-30T22:08:55.990Z,18.30
2022-08-30T22:11:25.338Z,18.40
2022-08-30T22:13:53.866Z,18.30
2022-08-30T22:16:21.955Z,18.30
2022-08-30T22:18:49.336Z,18.30
2022-08-30T22:21:19.998Z,18.30
2022-08-30T22:23:46.729Z,18.40
2022-08-30T22:26:16.000Z,18.40
2022-08-30T22:28:43.274Z,18.40
2022-08-30T22:31:12.367Z,18.40
2022-08-30T22:33:39.734Z,18.30
2022-08-30T22:36:12.605Z,18.30
2022-08-30T22:38:40.509Z,18.30
2022-08-30T22:41:16.965Z,18.30
2022-08-30T22:43:44.606Z,20.00
2022-08-30T22:46:11.865Z,18.30
2022-08-30T22:48:41.068Z,18.30
2022-08-30T22:51:08.187Z,18.30
2022-08-30T22:53:35.290Z,18.30
2022-08-30T22:56:20.006Z,18.30
2022-08-30T22:58:47.492Z,18.30
2022-08-30T23:01:27.275Z,18.30
2022-08-30T23:03:54.219Z,18.30
2022-08-30T23:06:21.040Z,18.30
2022-08-30T23:08:47.651Z,18.30
2022-08-30T23:11:14.693Z,18.20
2022-08-30T23:13:43.463Z,18.20
2022-08-30T23:16:11.893Z,18.20
2022-08-30T23:18:39.743Z,18.30
2022-08-30T23:21:12.851Z,18.20
2022-08-30T23:23:58.261Z,18.20
2022-08-30T23:26:43.739Z,18.20
2022-08-30T23:29:29.131Z,18.20
2022-08-30T23:32:14.684Z,18.30
2022-08-30T23:35:00.124Z,18.20
2022-08-30T23:37:45.564Z,18.10
2022-08-30T23:40:34.367Z,18.10
2022-08-30T23:43:20.064Z,18.10
2022-08-30T23:46:05.493Z,18.00
2022-08-30T23:48:52.174Z,18.00
2022-08-30T23:51:37.946Z,17.90
2022-08-30T23:54:24.750Z,17.90
2022-08-30T23:57:10.170Z,17.90
2022-08-30T23:59:55.648Z,17.80
